Time;durP1;ratioP1;P1;durP2;ratioP2;P2;SDS_P1;SDS_P2;PMS_P1;PMS_P2;Temp;Humidity;BMP_temperature;BMP_pressure;BME280_temperature;BME280_humidity;BME280_pressure;Samples;Min_cycle;Max_cycle;Signal;HPM_P1;HPM_P2
2021/07/24 00:02:17;;;;;;;26.10;14.88;;;;;;;15.73;79.92;101492.31;4949259;28;20033;-50
2021/07/24 00:04:42;;;;;;;26.48;14.68;;;;;;;15.71;79.93;101489.66;4951058;28;20038;-48
2021/07/24 00:07:07;;;;;;;26.08;14.85;;;;;;;15.69;80.13;101490.53;4949627;28;20390;-50
2021/07/24 00:09:33;;;;;;;24.95;14.55;;;;;;;15.67;80.21;101480.03;4950923;28;20035;-50
2021/07/24 00:11:58;;;;;;;29.50;15.10;;;;;;;15.61;80.56;101482.66;4951304;28;20561;-51
2021/07/24 00:14:25;;;;;;;25.70;14.73;;;;;;;15.67;80.37;101487.91;4948748;28;20150;-49
2021/07/24 00:16:51;;;;;;;27.23;15.38;;;;;;;15.64;80.26;101472.13;4948396;28;20637;-54
2021/07/24 00:19:16;;;;;;;24.48;14.50;;;;;;;15.63;80.07;101466.84;4948126;28;20301;-47
2021/07/24 00:21:41;;;;;;;26.98;15.55;;;;;;;15.63;80.29;101462.47;4949359;28;20604;-48
2021/07/24 00:24:07;;;;;;;29.35;15.85;;;;;;;15.65;79.83;101471.25;4948937;28;20502;-49
2021/07/24 00:26:32;;;;;;;26.95;15.35;;;;;;;15.67;80.01;101459.00;4950217;28;20085;-49
2021/07/24 00:28:57;;;;;;;26.20;15.02;;;;;;;15.61;80.07;101460.72;4953194;28;20066;-51
2021/07/24 00:31:23;;;;;;;28.63;15.18;;;;;;;15.60;80.21;101453.72;4944625;28;20395;-50
2021/07/24 00:33:48;;;;;;;27.05;14.90;;;;;;;15.57;80.06;101456.31;4947792;28;20041;-52
2021/07/24 00:36:14;;;;;;;25.70;15.00;;;;;;;15.55;80.15;101456.34;4943928;28;20467;-49
2021/07/24 00:38:40;;;;;;;25.52;14.93;;;;;;;15.56;79.90;101455.44;4949732;28;20113;-51
2021/07/24 00:41:25;;;;;;;24.80;14.73;;;;;;;15.55;79.98;101451.09;4949223;28;20036;-49
2021/07/24 00:43:50;;;;;;;;;;;;;;;15.55;79.94;101439.69;4950036;28;20050;-51
2021/07/24 00:46:16;;;;;;;26.77;14.70;;;;;;;15.53;80.03;101429.16;4946459;28;20299;-51
2021/07/24 00:48:42;;;;;;;25.38;14.93;;;;;;;15.55;79.75;101430.06;4948454;28;20134;-48
2021/07/24 00:51:08;;;;;;;30.85;15.70;;;;;;;15.51;79.93;101424.75;4950905;28;20642;-49
2021/07/24 00:53:36;;;;;;;24.33;14.52;;;;;;;15.51;80.11;101417.72;4948769;28;20039;-48
2021/07/24 00:56:05;;;;;;;27.63;14.82;;;;;;;15.51;80.02;101420.38;4950247;28;20031;-52
2021/07/24 00:58:35;;;;;;;27.98;14.82;;;;;;;15.50;79.82;101415.97;4947426;28;20202;-49
2021/07/24 01:01:00;;;;;;;27.02;15.55;;;;;;;15.44;80.20;101406.34;4953856;28;20074;-53
2021/07/24 01:03:26;;;;;;;28.42;15.45;;;;;;;15.38;80.47;101408.94;4952668;28;20474;-51
2021/07/24 01:05:57;;;;;;;27.23;14.98;;;;;;;15.37;80.86;101406.31;4950537;28;20026;-49
2021/07/24 01:08:23;;;;;;;29.30;15.55;;;;;;;15.34;80.79;101406.31;4970934;28;20037;-52
2021/07/24 01:10:49;;;;;;;27.85;14.93;;;;;;;15.42;80.65;101391.47;4952077;28;20035;-51
2021/07/24 01:13:16;;;;;;;28.35;14.55;;;;;;;15.48;80.24;101383.59;4968749;28;20078;-52
2021/07/24 01:15:46;;;;;;;25.25;14.60;;;;;;;15.36;80.65;101378.31;4965531;28;20136;-54
2021/07/24 01:18:12;;;;;;;27.30;14.75;;;;;;;15.44;80.61;101380.06;4953115;28;20110;-49
2021/07/24 01:20:38;;;;;;;24.48;13.68;;;;;;;15.50;80.42;101373.06;4952829;28;20031;-51
2021/07/24 01:23:04;;;;;;;28.27;14.77;;;;;;;15.49;80.08;101373.97;4952683;28;20097;-48
2021/07/24 01:25:29;;;;;;;29.23;15.35;;;;;;;15.50;80.13;101373.94;4953090;28;20419;-52
2021/07/24 01:27:54;;;;;;;28.10;14.73;;;;;;;15.51;80.05;101366.94;4951919;28;20121;-49
2021/07/24 01:30:20;;;;;;;27.13;15.18;;;;;;;15.49;80.09;101360.81;4954271;28;20030;-53
2021/07/24 01:32:45;;;;;;;34.38;15.40;;;;;;;15.48;80.23;101354.69;4948088;28;20027;-50
2021/07/24 01:35:11;;;;;;;25.27;14.60;;;;;;;15.47;80.15;101339.78;4952824;28;20031;-49
2021/07/24 01:37:36;;;;;;;26.10;15.75;;;;;;;15.47;80.18;101339.78;4948727;28;20530;-51
2021/07/24 01:40:02;;;;;;;28.55;15.27;;;;;;;15.47;80.27;101331.03;4954660;28;20471;-52
2021/07/24 01:42:27;;;;;;;24.83;15.18;;;;;;;15.47;80.24;101331.91;4950536;28;20101;-51
2021/07/24 01:44:53;;;;;;;28.30;15.85;;;;;;;15.46;80.08;101324.88;4935240;28;20570;-50
2021/07/24 01:47:18;;;;;;;27.30;16.40;;;;;;;15.45;80.30;101331.00;4950717;28;20053;-54
2021/07/24 01:52:47;;;;;;;27.48;15.77;;;;;;;15.47;80.18;101331.03;4952417;28;20596;-51
2021/07/24 01:55:29;;;;;;;26.38;16.08;;;;;;;15.37;80.58;101332.75;4950443;28;20386;-54
2021/07/24 01:57:56;;;;;;;27.58;15.73;;;;;;;15.32;80.76;101324.00;4968649;28;20074;-49
2021/07/24 02:00:21;;;;;;;30.95;16.50;;;;;;;15.26;80.81;101314.34;4963195;28;20035;-51
2021/07/24 02:02:49;;;;;;;29.40;15.95;;;;;;;15.22;80.93;101317.88;4950538;28;20461;-53
2021/07/24 02:05:30;;;;;;;29.45;15.85;;;;;;;15.19;80.93;101309.09;4952551;28;20702;-48
2021/07/24 02:07:57;;;;;;;27.73;15.77;;;;;;;15.16;80.79;101299.47;4953226;28;20039;-50
2021/07/24 02:10:23;;;;;;;27.75;15.60;;;;;;;15.15;81.03;101297.72;4954118;28;20045;-48
2021/07/24 02:12:48;;;;;;;29.98;15.95;;;;;;;15.27;80.27;101297.72;4949796;28;20027;-50
2021/07/24 02:15:13;;;;;;;29.58;17.00;;;;;;;15.28;80.15;101304.75;4950300;28;20058;-49
2021/07/24 02:17:39;;;;;;;26.50;15.73;;;;;;;15.29;79.89;101303.88;4953855;28;20030;-48
2021/07/24 02:20:05;;;;;;;31.13;15.30;;;;;;;15.16;80.34;101302.09;4949327;28;20452;-50
2021/07/24 02:22:30;;;;;;;27.52;15.52;;;;;;;15.14;80.30;101298.59;4948395;28;20049;-48
2021/07/24 02:24:56;;;;;;;31.02;16.05;;;;;;;15.24;80.10;101299.50;4951911;28;20806;-52
2021/07/24 02:27:21;;;;;;;26.95;14.75;;;;;;;15.26;80.12;101301.22;4953152;28;20951;-49
2021/07/24 02:29:46;;;;;;;29.92;16.02;;;;;;;15.21;80.13;101299.47;4951682;28;20027;-51
2021/07/24 02:32:12;;;;;;;30.35;15.98;;;;;;;15.22;80.01;101296.84;4946981;28;20026;-49
2021/07/24 02:34:37;;;;;;;29.02;16.15;;;;;;;15.22;79.92;101288.97;4949753;28;20358;-51
2021/07/24 02:37:03;;;;;;;30.42;16.17;;;;;;;15.22;79.81;101277.59;4952070;28;20019;-49
2021/07/24 02:39:28;;;;;;;31.20;15.65;;;;;;;15.21;80.11;101268.81;4950515;28;21175;-48
2021/07/24 02:41:53;;;;;;;28.50;15.05;;;;;;;15.18;79.98;101271.47;4948581;28;20473;-49
2021/07/24 02:44:18;;;;;;;32.33;16.58;;;;;;;15.17;79.93;101271.47;4951806;28;20098;-49
2021/07/24 02:46:44;;;;;;;28.88;16.10;;;;;;;15.13;80.20;101265.31;4949595;28;20042;-50
2021/07/24 02:49:11;;;;;;;27.73;16.38;;;;;;;15.14;80.52;101258.31;4954260;28;20075;-47
2021/07/24 02:51:36;;;;;;;31.05;16.27;;;;;;;15.09;80.27;101258.31;4949045;28;20030;-47
2021/07/24 02:54:02;;;;;;;29.80;15.98;;;;;;;15.14;80.11;101268.81;4951611;28;20026;-50
2021/07/24 02:56:27;;;;;;;30.15;16.33;;;;;;;15.13;80.46;101265.31;4951083;28;20034;-49
2021/07/24 02:58:53;;;;;;;27.90;16.00;;;;;;;15.12;80.25;101279.34;4951635;28;20515;-48
2021/07/24 03:01:18;;;;;;;30.25;16.38;;;;;;;15.13;80.40;101267.06;4952244;28;20483;-54
2021/07/24 03:03:43;;;;;;;29.90;16.25;;;;;;;15.08;80.59;101259.19;4948761;28;20559;-50
2021/07/24 03:06:09;;;;;;;31.65;15.60;;;;;;;15.09;80.55;101237.31;4955072;28;20464;-49
2021/07/24 03:08:34;;;;;;;33.58;16.73;;;;;;;15.06;80.53;101226.81;4950975;28;20037;-51
2021/07/24 03:10:59;;;;;;;31.60;16.95;;;;;;;15.06;80.73;101215.44;4949244;28;20034;-55
2021/07/24 03:13:25;;;;;;;34.03;17.00;;;;;;;15.07;80.75;101204.91;4946888;28;20043;-49
2021/07/24 03:15:50;;;;;;;29.65;16.88;;;;;;;15.02;80.92;101186.53;4950468;28;20029;-53
2021/07/24 03:18:15;;;;;;;30.15;16.90;;;;;;;15.05;80.95;101180.41;4954916;28;20049;-50
2021/07/24 03:20:41;;;;;;;31.27;17.23;;;;;;;15.06;80.87;101184.81;4947991;28;20315;-47
2021/07/24 03:23:06;;;;;;;33.28;16.33;;;;;;;15.09;80.79;101204.91;4950738;28;20035;-50
2021/07/24 03:25:31;;;;;;;32.42;17.23;;;;;;;15.03;80.76;101203.16;4951462;28;20039;-48
2021/07/24 03:27:57;;;;;;;31.33;16.25;;;;;;;15.00;80.84;101195.31;4951391;28;20034;-49
2021/07/24 03:30:22;;;;;;;34.00;17.55;;;;;;;14.98;81.07;101195.28;4948648;28;20118;-47
2021/07/24 03:32:47;;;;;;;34.40;17.70;;;;;;;14.96;80.93;101196.16;4949487;28;20038;-48
2021/07/24 03:35:13;;;;;;;31.02;17.20;;;;;;;14.93;80.95;101202.31;4948686;28;20030;-50
2021/07/24 03:37:38;;;;;;;32.17;16.30;;;;;;;15.00;80.95;101197.94;4949087;28;20566;-50
2021/07/24 03:40:04;;;;;;;33.35;16.90;;;;;;;14.99;80.59;101196.16;4950644;28;20027;-50
2021/07/24 03:42:30;;;;;;;30.63;16.77;;;;;;;14.98;80.98;101212.78;4944787;28;20426;-52
2021/07/24 03:44:55;;;;;;;27.98;16.38;;;;;;;14.97;80.83;101213.66;4948568;28;20159;-47
2021/07/24 03:47:20;;;;;;;31.15;16.45;;;;;;;14.93;80.95;101199.69;4949368;28;20074;-50
2021/07/24 03:49:46;;;;;;;32.25;16.40;;;;;;;14.91;81.17;101187.41;4948562;28;20045;-50
2021/07/24 03:52:11;;;;;;;34.45;16.52;;;;;;;14.91;81.05;101182.16;4950616;28;20027;-53
2021/07/24 03:54:36;;;;;;;29.08;16.35;;;;;;;14.92;81.08;101182.16;4951043;28;20058;-52
2021/07/24 03:57:02;;;;;;;28.08;16.02;;;;;;;14.94;81.02;101174.28;4951075;28;20384;-53
2021/07/24 03:59:27;;;;;;;32.83;15.77;;;;;;;14.92;81.10;101166.41;4948122;28;20023;-51
2021/07/24 04:01:55;;;;;;;30.38;16.65;;;;;;;14.91;81.28;101164.66;4946571;28;20027;-51
2021/07/24 04:04:21;;;;;;;31.90;16.48;;;;;;;14.96;80.73;101172.53;4950599;28;20425;-48
2021/07/24 04:06:46;;;;;;;34.47;16.40;;;;;;;14.95;81.09;101184.78;4950968;28;20039;-49
2021/07/24 04:09:12;;;;;;;30.58;15.80;;;;;;;14.98;80.95;101184.78;4945059;28;20058;-49
2021/07/24 04:11:37;;;;;;;31.90;15.32;;;;;;;14.98;80.72;101182.16;4945098;28;20367;-49
2021/07/24 04:14:03;;;;;;;29.20;15.18;;;;;;;15.07;80.20;101183.03;4937078;28;20069;-52
2021/07/24 04:16:30;;;;;;;29.25;15.77;;;;;;;15.11;80.23;101187.41;4947154;28;20027;-51
2021/07/24 04:18:56;;;;;;;28.98;15.20;;;;;;;15.13;79.99;101196.16;4949763;28;20037;-52
2021/07/24 04:21:21;;;;;;;28.90;15.23;;;;;;;15.16;80.48;101198.78;4946140;28;20114;-49
2021/07/24 04:23:46;;;;;;;25.02;14.82;;;;;;;15.24;79.94;101218.06;4947456;28;20243;-52
2021/07/24 04:26:12;;;;;;;30.42;15.57;;;;;;;15.32;79.57;101222.41;4950003;28;20550;-52
2021/07/24 04:28:37;;;;;;;25.38;14.10;;;;;;;15.37;79.74;101211.91;4948169;28;20034;-52
2021/07/24 04:31:03;;;;;;;27.35;14.27;;;;;;;15.46;79.26;101217.16;4950851;28;20031;-48
2021/07/24 04:33:28;;;;;;;25.10;14.35;;;;;;;15.56;78.49;101228.56;4948524;28;20173;-52
2021/07/24 04:35:53;;;;;;;25.75;13.75;;;;;;;15.65;78.14;101239.06;4947523;28;20027;-48
2021/07/24 04:38:19;;;;;;;24.70;13.55;;;;;;;15.70;78.57;101243.44;4948255;28;20483;-51
2021/07/24 04:40:47;;;;;;;26.20;14.05;;;;;;;15.74;77.84;101250.44;4950916;28;20114;-50
2021/07/24 04:43:16;;;;;;;25.00;13.52;;;;;;;15.73;77.71;101248.72;4948899;28;20033;-49
2021/07/24 04:45:42;;;;;;;24.75;14.20;;;;;;;15.67;78.07;101239.94;4947611;28;20038;-50
2021/07/24 04:48:07;;;;;;;26.25;13.73;;;;;;;15.69;77.70;101204.00;4935076;28;20027;-48
2021/07/24 04:50:33;;;;;;;27.52;14.43;;;;;;;15.63;78.16;101204.03;4946034;28;20038;-51
2021/07/24 04:52:58;;;;;;;25.48;14.38;;;;;;;15.57;78.31;101204.03;4950456;28;20037;-51
2021/07/24 04:55:24;;;;;;;25.48;14.38;;;;;;;15.58;78.17;101188.28;4948647;28;20109;-48
2021/07/24 04:57:50;;;;;;;26.27;14.10;;;;;;;15.61;78.26;101190.91;4952433;28;20035;-50
2021/07/24 05:00:16;;;;;;;24.60;13.57;;;;;;;15.62;78.18;101199.63;4946279;28;20035;-52
2021/07/24 05:02:45;;;;;;;26.63;13.80;;;;;;;15.56;78.20;101189.13;4965556;28;20844;-53
2021/07/24 05:05:10;;;;;;;27.70;14.40;;;;;;;15.54;78.63;101181.28;4949623;28;20089;-53
2021/07/24 05:07:36;;;;;;;24.83;13.88;;;;;;;15.65;78.52;101187.38;4947370;28;20546;-52
2021/07/24 05:10:08;;;;;;;26.30;14.68;;;;;;;15.80;78.31;101191.69;4950935;28;20097;-51
2021/07/24 05:12:33;;;;;;;26.75;13.57;;;;;;;15.92;77.85;101196.06;4945392;28;20139;-51
2021/07/24 05:14:58;;;;;;;25.10;13.82;;;;;;;16.00;77.07;101178.50;4950268;28;20130;-52
2021/07/24 05:17:24;;;;;;;23.85;13.02;;;;;;;16.12;76.99;101178.44;4949869;28;20479;-52
2021/07/24 05:19:49;;;;;;;23.60;13.35;;;;;;;16.20;76.99;101192.44;4950065;28;20023;-52
2021/07/24 05:22:15;;;;;;;23.30;13.60;;;;;;;16.34;76.31;101193.25;4947502;28;20385;-49
2021/07/24 05:24:44;;;;;;;22.40;12.38;;;;;;;16.46;74.93;101176.53;4949728;28;20173;-50
2021/07/24 05:27:10;;;;;;;23.27;13.10;;;;;;;16.53;75.18;101176.47;4951657;28;20078;-49
2021/07/24 05:29:36;;;;;;;23.55;12.60;;;;;;;16.63;75.00;101174.69;4946591;28;20030;-49
2021/07/24 05:32:01;;;;;;;21.02;12.25;;;;;;;16.65;74.62;101164.16;4948328;28;20030;-51
2021/07/24 05:34:27;;;;;;;25.42;13.25;;;;;;;16.71;74.48;101145.69;4946724;28;20027;-48
2021/07/24 05:36:52;;;;;;;22.52;12.25;;;;;;;16.86;74.00;101156.09;4949235;28;20162;-51
2021/07/24 05:39:17;;;;;;;21.50;12.07;;;;;;;17.00;73.90;101159.50;4946941;28;20399;-51
2021/07/24 05:41:43;;;;;;;21.77;12.55;;;;;;;17.04;73.66;101159.44;4949861;28;20102;-51
2021/07/24 05:44:10;;;;;;;20.40;11.98;;;;;;;17.01;72.92;101164.75;4946863;28;20558;-52
2021/07/24 05:46:35;;;;;;;19.80;12.07;;;;;;;17.11;73.13;101167.31;4951062;28;20474;-55
2021/07/24 05:49:01;;;;;;;21.92;11.68;;;;;;;17.27;72.37;101158.34;4969679;28;20039;-49
2021/07/24 05:51:26;;;;;;;18.00;11.20;;;;;;;17.38;72.10;101144.19;4949891;28;20037;-54
2021/07/24 05:53:52;;;;;;;20.70;11.90;;;;;;;17.35;72.09;101141.59;4953714;28;20082;-49
2021/07/24 05:56:17;;;;;;;17.65;11.38;;;;;;;17.52;71.54;101140.53;4949176;28;20430;-51
2021/07/24 05:58:42;;;;;;;21.02;12.10;;;;;;;17.46;71.09;101138.84;4954198;28;20038;-50
2021/07/24 06:01:11;;;;;;;18.75;11.10;;;;;;;17.62;71.29;101142.25;4951747;28;20526;-53
2021/07/24 06:03:37;;;;;;;18.33;11.63;;;;;;;17.70;70.39;101124.53;4951906;28;20101;-52
2021/07/24 06:06:02;;;;;;;17.77;11.57;;;;;;;17.67;70.42;101128.09;4951254;28;20483;-51
2021/07/24 06:08:28;;;;;;;19.75;11.40;;;;;;;17.54;70.66;101125.59;4949467;28;20045;-49
2021/07/24 06:10:53;;;;;;;19.60;11.77;;;;;;;17.44;71.51;101119.56;4952689;28;20710;-48
2021/07/24 06:13:23;;;;;;;17.88;11.38;;;;;;;17.68;70.12;101121.06;4950555;28;20046;-48
2021/07/24 06:15:49;;;;;;;18.30;11.85;;;;;;;17.55;70.86;101120.31;4950322;28;20077;-51
2021/07/24 06:18:14;;;;;;;19.10;11.07;;;;;;;17.57;70.82;101129.03;4950142;28;20034;-52
2021/07/24 06:20:39;;;;;;;18.75;11.15;;;;;;;17.74;71.47;101134.19;4949296;28;20034;-49
2021/07/24 06:23:05;;;;;;;17.17;11.50;;;;;;;17.68;71.26;101145.69;4952012;28;20363;-49
2021/07/24 06:25:31;;;;;;;19.05;11.68;;;;;;;17.76;69.66;101141.16;4946044;28;20094;-51
2021/07/24 06:27:56;;;;;;;21.95;11.73;;;;;;;17.57;71.25;101147.50;4953217;28;20027;-51
2021/07/24 06:30:21;;;;;;;19.60;11.75;;;;;;;17.43;70.91;101152.94;4952295;28;20034;-51
2021/07/24 06:32:46;;;;;;;21.63;11.43;;;;;;;17.52;70.65;101146.69;4947947;28;20042;-49
2021/07/24 06:35:12;;;;;;;23.60;11.80;;;;;;;17.68;71.28;101145.69;4953168;28;20023;-51
2021/07/24 06:37:37;;;;;;;19.25;11.60;;;;;;;17.68;71.31;101142.16;4951948;28;20035;-50
2021/07/24 06:40:04;;;;;;;20.58;11.55;;;;;;;17.77;71.43;101148.19;4950262;28;20544;-51
2021/07/24 06:42:29;;;;;;;22.25;11.65;;;;;;;17.87;70.71;101142.81;4950465;28;20026;-47
2021/07/24 06:44:54;;;;;;;21.35;12.00;;;;;;;17.80;69.56;101131.47;4952440;28;20026;-49
2021/07/24 06:47:21;;;;;;;19.98;11.77;;;;;;;17.93;70.63;101129.56;4951734;28;20038;-50
2021/07/24 06:49:46;;;;;;;17.98;11.50;;;;;;;18.11;70.08;101134.59;4951206;28;20272;-50
2021/07/24 06:52:11;;;;;;;19.13;11.43;;;;;;;18.02;68.75;101124.16;4950128;28;20097;-47
2021/07/24 06:54:38;;;;;;;18.90;11.63;;;;;;;18.11;69.46;101121.41;4949413;28;20141;-50
2021/07/24 06:57:03;;;;;;;17.85;11.23;;;;;;;18.17;70.25;101116.03;4950196;28;20062;-49
2021/07/24 06:59:28;;;;;;;20.67;11.25;;;;;;;18.46;68.66;101105.06;4949913;28;20471;-49
2021/07/24 07:01:54;;;;;;;17.38;10.95;;;;;;;18.56;67.92;101104.03;4949437;28;20494;-49
2021/07/24 07:04:19;;;;;;;20.90;11.50;;;;;;;18.72;67.92;101107.31;4951294;28;20109;-49
2021/07/24 07:06:44;;;;;;;19.92;11.13;;;;;;;18.70;67.35;101093.25;4947184;28;20165;-50
2021/07/24 07:09:10;;;;;;;18.63;10.90;;;;;;;18.78;66.72;101099.28;4950496;28;20066;-51
2021/07/24 07:11:35;;;;;;;17.02;11.13;;;;;;;18.86;67.58;101092.97;4951391;28;20026;-47
2021/07/24 07:14:01;;;;;;;18.40;11.43;;;;;;;18.79;67.52;101095.72;4950133;28;20034;-48
2021/07/24 07:16:27;;;;;;;20.95;12.43;;;;;;;18.67;67.50;101096.81;4948868;28;20034;-47
2021/07/24 07:18:52;;;;;;;18.98;12.18;;;;;;;18.78;68.60;101094.00;4950266;28;20065;-50
2021/07/24 07:21:17;;;;;;;19.65;12.00;;;;;;;18.75;67.37;101084.38;4947613;28;20546;-48
2021/07/24 07:23:43;;;;;;;18.38;11.93;;;;;;;18.81;66.81;101073.69;4950318;28;20030;-51
2021/07/24 07:26:08;;;;;;;19.80;11.75;;;;;;;18.69;66.93;101063.34;4948685;28;20031;-54
2021/07/24 07:28:33;;;;;;;19.63;12.23;;;;;;;18.42;68.22;101072.53;4951073;28;20340;-49
2021/07/24 07:30:59;;;;;;;18.98;11.80;;;;;;;18.56;67.43;101078.50;4952288;28;20027;-49
2021/07/24 07:33:27;;;;;;;19.48;11.13;;;;;;;18.58;67.84;101082.00;4945179;28;21008;-51
2021/07/24 07:36:21;;;;;;;19.98;12.38;;;;;;;18.52;67.37;101079.44;4946009;28;20308;-49
2021/07/24 07:38:49;;;;;;;21.77;11.95;;;;;;;18.48;68.02;101085.63;4949914;28;20046;-53
2021/07/24 07:41:15;;;;;;;21.38;11.77;;;;;;;18.46;67.56;101092.72;4967653;28;20049;-50
2021/07/24 07:43:40;;;;;;;18.67;11.60;;;;;;;18.75;67.88;101080.84;4945644;28;20487;-49
2021/07/24 07:46:06;;;;;;;18.35;11.88;;;;;;;18.83;68.34;101077.19;4949581;28;20034;-50
2021/07/24 07:48:37;;;;;;;19.67;11.70;;;;;;;18.98;66.97;101073.38;4950208;28;20027;-51
2021/07/24 07:51:06;;;;;;;19.13;11.52;;;;;;;19.19;66.77;101069.50;4959247;28;20714;-49
2021/07/24 07:53:32;;;;;;;19.10;12.15;;;;;;;19.34;66.47;101070.06;4952554;28;20050;-50
2021/07/24 07:55:58;;;;;;;18.52;12.07;;;;;;;19.51;65.44;101069.78;4948608;28;20031;-51
2021/07/24 07:58:23;;;;;;;20.65;11.80;;;;;;;19.62;65.25;101069.56;4949682;28;20632;-53
2021/07/24 08:00:50;;;;;;;21.65;11.07;;;;;;;19.87;65.41;101065.50;4949802;28;20030;-53
2021/07/24 08:03:15;;;;;;;16.42;11.38;;;;;;;20.19;64.92;101062.97;4949122;28;20422;-51
2021/07/24 08:05:41;;;;;;;17.42;11.40;;;;;;;20.50;62.73;101057.84;4947823;28;20271;-48
2021/07/24 08:08:06;;;;;;;17.67;11.85;;;;;;;20.54;62.05;101056.00;4945806;28;20042;-50
2021/07/24 08:10:31;;;;;;;15.88;11.13;;;;;;;20.47;62.66;101051.78;4948192;28;20038;-48
2021/07/24 08:12:57;;;;;;;19.15;11.00;;;;;;;20.64;62.72;101050.44;4948146;28;20041;-49
2021/07/24 08:15:22;;;;;;;17.58;11.13;;;;;;;20.55;63.07;101044.53;4946272;28;20038;-52
2021/07/24 08:17:48;;;;;;;17.40;11.27;;;;;;;20.79;62.26;101046.53;4948372;28;20026;-50
2021/07/24 08:20:13;;;;;;;16.58;10.95;;;;;;;20.63;62.25;101046.03;4948927;28;20491;-52
2021/07/24 08:22:39;;;;;;;19.30;11.90;;;;;;;20.41;62.95;101047.50;4949734;28;20058;-52
2021/07/24 08:25:05;;;;;;;16.58;11.55;;;;;;;20.65;62.95;101054.84;4947494;28;20100;-51
2021/07/24 08:27:32;;;;;;;21.30;12.27;;;;;;;20.43;63.72;101052.75;4947571;28;20415;-49
2021/07/24 08:29:57;;;;;;;18.13;11.93;;;;;;;20.53;63.31;101043.69;4946128;28;20731;-48
2021/07/24 08:32:23;;;;;;;18.05;11.25;;;;;;;20.67;63.61;101050.34;4949123;28;20530;-51
2021/07/24 08:34:52;;;;;;;17.83;12.10;;;;;;;20.73;63.41;101044.06;4947260;28;20038;-52
2021/07/24 08:37:20;;;;;;;19.35;12.38;;;;;;;20.73;63.81;101045.81;4950948;28;20027;-48
2021/07/24 08:39:46;;;;;;;19.13;12.23;;;;;;;20.67;63.39;101042.41;4949411;28;20034;-52
2021/07/24 08:42:32;;;;;;;16.45;11.52;;;;;;;20.73;64.92;101045.81;4950780;28;20062;-50
2021/07/24 08:45:01;;;;;;;21.73;11.85;;;;;;;20.77;63.70;101044.84;4951418;28;20793;-51
2021/07/24 08:47:30;;;;;;;18.38;12.05;;;;;;;20.74;63.48;101045.75;4945892;28;20038;-49
2021/07/24 08:49:56;;;;;;;19.63;12.10;;;;;;;20.77;63.47;101050.13;4947660;28;20031;-49
2021/07/24 08:52:26;;;;;;;18.77;12.68;;;;;;;20.57;63.85;101040.03;4945496;28;20035;-52
2021/07/24 08:54:51;;;;;;;20.35;12.77;;;;;;;20.48;64.06;101038.50;4948844;28;20038;-51
2021/07/24 08:57:20;;;;;;;20.38;12.80;;;;;;;20.44;64.66;101047.41;4951291;28;20062;-53
2021/07/24 08:59:46;;;;;;;19.90;12.25;;;;;;;20.37;64.90;101052.91;4966416;28;20035;-53
2021/07/24 09:02:12;;;;;;;22.27;12.93;;;;;;;20.26;64.65;101047.81;4948615;28;20089;-54
2021/07/24 09:04:38;;;;;;;18.27;12.23;;;;;;;20.22;65.33;101038.22;4946627;28;20041;-47
2021/07/24 09:07:06;;;;;;;19.33;12.57;;;;;;;20.35;65.56;101037.06;4950640;28;20026;-49
2021/07/24 09:09:32;;;;;;;20.50;12.57;;;;;;;20.18;65.74;101036.56;4945862;28;20109;-50
2021/07/24 09:11:57;;;;;;;21.92;12.70;;;;;;;20.20;65.85;101032.06;4945120;28;20577;-48
2021/07/24 09:14:23;;;;;;;17.50;12.00;;;;;;;20.36;65.97;101045.88;4962472;28;20046;-50
2021/07/24 09:16:50;;;;;;;19.42;13.00;;;;;;;20.26;66.35;101038.09;4961633;28;20030;-52
2021/07/24 09:19:17;;;;;;;28.60;13.25;;;;;;;20.26;66.25;101035.44;4945913;28;20035;-47
2021/07/24 09:21:42;;;;;;;19.63;13.15;;;;;;;20.38;65.98;101028.16;4946289;28;20043;-51
2021/07/24 09:24:22;;;;;;;20.38;13.20;;;;;;;20.43;66.00;101027.13;4970726;28;20201;-50
2021/07/24 09:26:48;;;;;;;18.48;13.18;;;;;;;20.59;65.60;101015.25;4948665;28;20062;-51
2021/07/24 09:29:15;;;;;;;20.10;12.98;;;;;;;20.91;66.89;101022.38;4951110;28;20392;-49
2021/07/24 09:31:42;;;;;;;19.83;13.13;;;;;;;20.89;65.34;101015.34;4944680;28;20037;-49
2021/07/24 09:34:13;;;;;;;20.23;12.73;;;;;;;21.18;64.34;101022.53;4950982;28;20030;-49
2021/07/24 09:36:39;;;;;;;22.58;13.20;;;;;;;21.10;63.86;101019.22;4949888;28;20095;-48
2021/07/24 09:39:08;;;;;;;19.25;12.70;;;;;;;21.31;63.54;101019.50;4948989;28;20372;-48
2021/07/24 09:41:34;;;;;;;24.45;12.50;;;;;;;21.62;63.38;101029.22;4936248;28;20039;-50
2021/07/24 09:44:00;;;;;;;21.38;13.15;;;;;;;21.38;63.42;101029.03;4954538;28;20089;-49
2021/07/24 09:46:27;;;;;;;19.38;12.43;;;;;;;21.53;63.83;101030.34;4953935;28;20041;-50
2021/07/24 09:48:53;;;;;;;19.13;12.65;;;;;;;21.62;62.66;101034.53;4950136;28;20109;-47
2021/07/24 09:51:35;;;;;;;18.38;12.75;;;;;;;21.65;62.85;101039.78;4951753;28;20046;-48
2021/07/24 09:54:01;;;;;;;16.45;12.13;;;;;;;21.64;62.76;101038.03;4946014;28;20515;-50
2021/07/24 09:56:43;;;;;;;19.10;13.30;;;;;;;21.58;62.43;101028.47;4950162;28;20415;-50
2021/07/24 09:59:18;;;;;;;23.38;13.65;;;;;;;21.48;62.78;101016.38;4952988;28;20041;-48
2021/07/24 10:01:44;;;;;;;19.50;13.30;;;;;;;21.44;63.32;101023.56;4951569;28;20033;-49
2021/07/24 10:04:10;;;;;;;22.48;13.63;;;;;;;21.42;63.45;101028.03;4949608;28;20034;-50
2021/07/24 10:06:38;;;;;;;21.63;14.38;;;;;;;21.43;62.86;101021.81;4935522;28;20426;-50
2021/07/24 10:09:04;;;;;;;21.33;13.45;;;;;;;21.34;63.77;101026.53;4970118;28;20137;-50
2021/07/24 10:11:29;;;;;;;22.85;13.50;;;;;;;21.39;63.62;101027.25;4948265;28;20030;-49
2021/07/24 10:13:55;;;;;;;20.27;13.32;;;;;;;21.34;64.83;101026.53;4953151;28;20026;-49
2021/07/24 10:16:20;;;;;;;20.60;14.32;;;;;;;21.04;69.06;101026.41;4946858;28;20035;-51
2021/07/24 10:18:46;;;;;;;23.67;14.85;;;;;;;20.52;68.74;101021.63;4950817;28;20149;-52
2021/07/24 10:21:11;;;;;;;22.40;15.05;;;;;;;20.25;69.01;101019.59;4946176;28;20034;-51
2021/07/24 10:23:37;;;;;;;24.08;15.52;;;;;;;20.29;70.38;101016.00;4947068;28;20526;-49
2021/07/24 10:26:09;;;;;;;22.30;14.45;;;;;;;20.60;70.37;101016.13;4957175;28;20034;-51
2021/07/24 10:28:40;;;;;;;20.63;14.48;;;;;;;20.76;69.65;101021.88;4964936;28;20026;-48
2021/07/24 10:31:12;;;;;;;23.25;14.77;;;;;;;20.89;69.05;101016.22;4967078;28;20041;-48
2021/07/24 10:33:38;;;;;;;23.63;14.55;;;;;;;21.10;68.25;101016.56;4948486;28;20081;-53
2021/07/24 10:36:14;;;;;;;20.80;13.55;;;;;;;21.36;68.35;101022.91;4950787;28;20232;-51
2021/07/24 10:39:02;;;;;;;22.30;13.98;;;;;;;21.43;65.71;101024.47;4952719;28;20054;-49
2021/07/24 10:41:34;;;;;;;23.35;13.52;;;;;;;21.51;65.37;101024.25;4947690;28;20023;-50
2021/07/24 10:44:07;;;;;;;21.45;13.60;;;;;;;21.59;66.04;101026.69;4951044;28;20037;-52
2021/07/24 10:49:08;;;;;;;23.55;14.10;;;;;;;21.85;65.79;101016.13;4947615;28;20069;-48
2021/07/24 10:51:58;;;;;;;21.35;13.40;;;;;;;21.89;64.08;101014.28;4946673;28;20027;-51
2021/07/24 10:54:24;;;;;;;23.60;14.15;;;;;;;21.81;64.02;101007.41;4951440;28;20035;-51
2021/07/24 10:56:49;;;;;;;19.25;13.43;;;;;;;21.91;63.36;101007.09;4944752;28;20034;-50
2021/07/24 10:59:14;;;;;;;19.85;13.55;;;;;;;22.18;64.57;101003.63;4948906;28;20499;-52
2021/07/24 11:01:59;;;;;;;19.20;12.90;;;;;;;22.33;62.57;101002.25;4947976;28;20692;-50
2021/07/24 11:04:37;;;;;;;19.10;13.32;;;;;;;22.50;62.90;100999.91;4952356;28;20399;-50
2021/07/24 11:07:12;;;;;;;21.55;14.05;;;;;;;22.65;61.24;101000.25;4943317;28;20169;-50
2021/07/24 11:09:38;;;;;;;22.10;13.93;;;;;;;22.66;60.25;101002.00;4947387;28;20031;-50
2021/07/24 11:12:08;;;;;;;20.45;13.88;;;;;;;22.64;60.49;100992.31;4944903;28;20447;-50
2021/07/24 11:14:37;;;;;;;19.40;13.98;;;;;;;22.74;60.80;100992.91;4949317;28;20126;-55